AUA751W LOWW-LATI
Flight info
| Callsign | AUA751W |
|---|---|
| Flight time | 1h 19m |
| Altitude | 39000 |
| Route | ARSIN DCT NALOX DCT OSDUK DCT VIBOP DCT AKIKA DCT INLOT |
| Aircraft | A320/M-SDE3FGHIRWY/LB1 |
Departure
| Time | 2026-05-07 07:53 |
|---|---|
| Airport | Vienna International Airport (LOWW) |
Arrival
| Time | 2026-05-07 09:12 |
|---|---|
| Airport | Tirana International Airport Mother Teresa (LATI) |
| Time | Latitude | Longitude | Altitude | Speed | Heading |
|---|---|---|---|---|---|
| 2026-05-07 07:03 | 48.11765 | 16.56628 | 611 ft | 0 kts | 26° |
| 2026-05-07 07:45 | 48.11763 | 16.56626 | 610 ft | 2 kts | 26° |
| 2026-05-07 07:45 | 48.11739 | 16.56608 | 617 ft | 4 kts | 31° |
| 2026-05-07 07:46 | 48.11717 | 16.56586 | 625 ft | 4 kts | 42° |
| 2026-05-07 07:46 | 48.11701 | 16.56557 | 619 ft | 4 kts | 84° |
| 2026-05-07 07:46 | 48.11701 | 16.56541 | 624 ft | 0 kts | 116° |
| 2026-05-07 07:49 | 48.11691 | 16.56573 | 620 ft | 10 kts | 116° |
| 2026-05-07 07:49 | 48.11654 | 16.56687 | 618 ft | 13 kts | 116° |
| 2026-05-07 07:49 | 48.11611 | 16.56821 | 615 ft | 15 kts | 116° |
| 2026-05-07 07:49 | 48.11556 | 16.56918 | 618 ft | 11 kts | 164° |
| 2026-05-07 07:50 | 48.11457 | 16.56865 | 616 ft | 19 kts | 206° |
| 2026-05-07 07:50 | 48.11364 | 16.56826 | 617 ft | 11 kts | 154° |
| 2026-05-07 07:50 | 48.11315 | 16.56949 | 611 ft | 19 kts | 116° |
| 2026-05-07 07:50 | 48.11257 | 16.57126 | 618 ft | 18 kts | 116° |
| 2026-05-07 07:51 | 48.11203 | 16.57292 | 613 ft | 17 kts | 116° |
| 2026-05-07 07:51 | 48.11152 | 16.57449 | 619 ft | 16 kts | 116° |
| 2026-05-07 07:51 | 48.11105 | 16.57595 | 612 ft | 14 kts | 116° |
| 2026-05-07 07:51 | 48.11032 | 16.57639 | 609 ft | 12 kts | 203° |
| 2026-05-07 07:52 | 48.10960 | 16.57586 | 613 ft | 11 kts | 206° |
| 2026-05-07 07:52 | 48.10931 | 16.57483 | 612 ft | 13 kts | 292° |
| 2026-05-07 07:52 | 48.10979 | 16.57331 | 617 ft | 24 kts | 296° |
| 2026-05-07 07:52 | 48.11147 | 16.56817 | 614 ft | 91 kts | 296° |
| 2026-05-07 07:53 | 48.11519 | 16.55676 | 623 ft | 151 kts | 296° |
| 2026-05-07 07:53 | 48.11992 | 16.54229 | 1319 ft | 152 kts | 291° |
| 2026-05-07 07:53 | 48.11963 | 16.52689 | 2240 ft | 154 kts | 246° |
| 2026-05-07 07:53 | 48.11214 | 16.51443 | 2830 ft | 174 kts | 224° |
| 2026-05-07 07:54 | 48.10206 | 16.50217 | 3231 ft | 199 kts | 223° |
| 2026-05-07 07:54 | 48.09064 | 16.48825 | 3744 ft | 224 kts | 223° |
| 2026-05-07 07:54 | 48.07681 | 16.47504 | 4283 ft | 253 kts | 200° |
| 2026-05-07 07:54 | 48.05874 | 16.47360 | 5124 ft | 268 kts | 177° |
| 2026-05-07 07:55 | 48.04013 | 16.47674 | 6213 ft | 270 kts | 171° |
| 2026-05-07 07:55 | 48.02213 | 16.48522 | 7289 ft | 272 kts | 160° |
| 2026-05-07 07:55 | 48.00459 | 16.49554 | 8329 ft | 274 kts | 161° |
| 2026-05-07 07:55 | 47.98666 | 16.50617 | 9332 ft | 277 kts | 161° |
| 2026-05-07 07:56 | 47.96861 | 16.51689 | 10283 ft | 282 kts | 161° |
| 2026-05-07 07:56 | 47.94962 | 16.52809 | 10684 ft | 306 kts | 161° |
| 2026-05-07 07:56 | 47.93602 | 16.53609 | 11033 ft | 316 kts | 161° |
| 2026-05-07 07:56 | 47.91533 | 16.54833 | 11807 ft | 323 kts | 161° |
| 2026-05-07 07:57 | 47.89424 | 16.56089 | 12673 ft | 327 kts | 162° |
| 2026-05-07 07:57 | 47.87294 | 16.57363 | 13519 ft | 332 kts | 162° |
| 2026-05-07 07:57 | 47.85168 | 16.58631 | 14295 ft | 335 kts | 162° |
| 2026-05-07 07:57 | 47.82959 | 16.59946 | 15078 ft | 338 kts | 162° |
| 2026-05-07 07:58 | 47.80767 | 16.61246 | 15863 ft | 340 kts | 163° |
| 2026-05-07 07:58 | 47.78589 | 16.62531 | 16635 ft | 343 kts | 163° |
| 2026-05-07 07:58 | 47.76362 | 16.63843 | 17388 ft | 345 kts | 163° |
| 2026-05-07 07:58 | 47.74116 | 16.65162 | 18153 ft | 348 kts | 163° |
| 2026-05-07 07:59 | 47.71861 | 16.66485 | 18819 ft | 351 kts | 163° |
| 2026-05-07 07:59 | 47.69583 | 16.67827 | 19488 ft | 353 kts | 163° |
| 2026-05-07 07:59 | 47.67302 | 16.69172 | 20139 ft | 355 kts | 163° |
| 2026-05-07 07:59 | 47.64988 | 16.70533 | 20806 ft | 358 kts | 163° |
| 2026-05-07 08:00 | 47.62669 | 16.71893 | 21482 ft | 360 kts | 163° |
| 2026-05-07 08:00 | 47.60326 | 16.73263 | 22133 ft | 362 kts | 163° |
| 2026-05-07 08:00 | 47.57969 | 16.74610 | 22773 ft | 364 kts | 166° |
| 2026-05-07 08:00 | 47.55513 | 16.75456 | 23389 ft | 362 kts | 177° |
| 2026-05-07 08:01 | 47.53006 | 16.75723 | 23943 ft | 363 kts | 180° |
| 2026-05-07 08:01 | 47.50474 | 16.75952 | 24430 ft | 366 kts | 180° |
| 2026-05-07 08:01 | 47.47912 | 16.76192 | 24927 ft | 369 kts | 180° |
| 2026-05-07 08:01 | 47.45340 | 16.76437 | 25409 ft | 372 kts | 180° |
| 2026-05-07 08:02 | 47.42749 | 16.76689 | 25895 ft | 375 kts | 180° |
| 2026-05-07 08:02 | 47.40137 | 16.76944 | 26364 ft | 378 kts | 180° |
| 2026-05-07 08:02 | 47.37510 | 16.77203 | 26812 ft | 380 kts | 180° |
| 2026-05-07 08:02 | 47.34866 | 16.77462 | 27254 ft | 383 kts | 180° |
| 2026-05-07 08:03 | 47.32192 | 16.77716 | 27690 ft | 385 kts | 180° |
| 2026-05-07 08:03 | 47.29507 | 16.77968 | 28123 ft | 388 kts | 180° |
| 2026-05-07 08:03 | 47.26801 | 16.78224 | 28549 ft | 391 kts | 180° |
| 2026-05-07 08:03 | 47.24080 | 16.78483 | 28974 ft | 393 kts | 180° |
| 2026-05-07 08:04 | 47.21340 | 16.78745 | 29389 ft | 396 kts | 180° |
| 2026-05-07 08:04 | 47.18577 | 16.79013 | 29834 ft | 399 kts | 180° |
| 2026-05-07 08:04 | 47.15799 | 16.79281 | 30235 ft | 401 kts | 180° |
| 2026-05-07 08:04 | 47.13004 | 16.79551 | 30579 ft | 403 kts | 180° |
| 2026-05-07 08:05 | 47.10201 | 16.79812 | 30909 ft | 404 kts | 180° |
| 2026-05-07 08:05 | 47.07388 | 16.80072 | 31229 ft | 406 kts | 180° |
| 2026-05-07 08:05 | 47.04561 | 16.80334 | 31572 ft | 407 kts | 180° |
| 2026-05-07 08:05 | 47.01727 | 16.80601 | 31917 ft | 408 kts | 180° |
| 2026-05-07 08:06 | 46.98905 | 16.80871 | 32360 ft | 406 kts | 181° |
| 2026-05-07 08:06 | 46.96091 | 16.81140 | 32806 ft | 404 kts | 181° |
| 2026-05-07 08:06 | 46.93298 | 16.81407 | 33250 ft | 402 kts | 181° |
| 2026-05-07 08:06 | 46.90515 | 16.81758 | 33694 ft | 403 kts | 176° |
| 2026-05-07 08:07 | 46.87775 | 16.82773 | 34105 ft | 410 kts | 166° |
| 2026-05-07 08:07 | 46.85174 | 16.84582 | 34435 ft | 420 kts | 155° |
| 2026-05-07 08:07 | 46.82797 | 16.87169 | 34710 ft | 430 kts | 146° |
| 2026-05-07 08:07 | 46.80528 | 16.90020 | 34989 ft | 431 kts | 146° |
| 2026-05-07 08:08 | 46.78250 | 16.92865 | 35274 ft | 431 kts | 146° |
| 2026-05-07 08:08 | 46.75968 | 16.95706 | 35593 ft | 432 kts | 146° |
| 2026-05-07 08:08 | 46.73678 | 16.98544 | 35896 ft | 432 kts | 146° |
| 2026-05-07 08:08 | 46.71381 | 17.01382 | 36169 ft | 433 kts | 146° |
| 2026-05-07 08:09 | 46.69083 | 17.04218 | 36427 ft | 433 kts | 146° |
| 2026-05-07 08:09 | 46.66808 | 17.07026 | 36669 ft | 434 kts | 146° |
| 2026-05-07 08:09 | 46.64501 | 17.09873 | 36905 ft | 434 kts | 146° |
| 2026-05-07 08:09 | 46.62196 | 17.12713 | 37135 ft | 435 kts | 146° |
| 2026-05-07 08:10 | 46.59886 | 17.15553 | 37380 ft | 435 kts | 146° |
| 2026-05-07 08:10 | 46.57575 | 17.18390 | 37617 ft | 435 kts | 146° |
| 2026-05-07 08:10 | 46.55230 | 17.21267 | 37855 ft | 435 kts | 146° |
| 2026-05-07 08:10 | 46.52945 | 17.24069 | 38084 ft | 436 kts | 146° |
| 2026-05-07 08:11 | 46.50628 | 17.26908 | 38330 ft | 436 kts | 146° |
| 2026-05-07 08:11 | 46.48308 | 17.29748 | 38543 ft | 436 kts | 145° |
| 2026-05-07 08:11 | 46.45988 | 17.32584 | 38744 ft | 436 kts | 145° |
| 2026-05-07 08:11 | 46.43667 | 17.35418 | 38910 ft | 436 kts | 145° |
| 2026-05-07 08:12 | 46.41340 | 17.38256 | 38986 ft | 437 kts | 145° |
| 2026-05-07 08:12 | 46.36686 | 17.43917 | 39002 ft | 437 kts | 145° |
| 2026-05-07 08:13 | 46.32026 | 17.49571 | 38997 ft | 437 kts | 145° |
| 2026-05-07 08:13 | 46.27381 | 17.55212 | 39002 ft | 436 kts | 145° |
| 2026-05-07 08:14 | 46.22727 | 17.60855 | 39003 ft | 436 kts | 145° |
| 2026-05-07 08:14 | 46.18076 | 17.66451 | 38999 ft | 436 kts | 145° |
| 2026-05-07 08:15 | 46.13416 | 17.72052 | 39012 ft | 436 kts | 145° |
| 2026-05-07 08:15 | 46.08760 | 17.77640 | 39015 ft | 435 kts | 145° |
| 2026-05-07 08:16 | 46.04105 | 17.83227 | 39019 ft | 435 kts | 145° |
| 2026-05-07 08:16 | 45.99448 | 17.88797 | 39024 ft | 435 kts | 146° |
| 2026-05-07 08:17 | 45.94792 | 17.94341 | 39024 ft | 434 kts | 146° |
| 2026-05-07 08:17 | 45.92356 | 17.96872 | 39021 ft | 427 kts | 157° |
| 2026-05-07 08:17 | 45.89634 | 17.98429 | 39025 ft | 418 kts | 169° |
| 2026-05-07 08:18 | 45.84073 | 18.00683 | 39018 ft | 418 kts | 169° |
| 2026-05-07 08:18 | 45.78467 | 18.02909 | 39014 ft | 418 kts | 169° |
| 2026-05-07 08:19 | 45.72822 | 18.05158 | 39008 ft | 419 kts | 169° |
| 2026-05-07 08:19 | 45.67245 | 18.07386 | 39003 ft | 419 kts | 169° |
| 2026-05-07 08:20 | 45.61624 | 18.09628 | 39005 ft | 419 kts | 169° |
| 2026-05-07 08:20 | 45.55998 | 18.11867 | 39013 ft | 420 kts | 169° |
| 2026-05-07 08:21 | 45.50368 | 18.14105 | 39015 ft | 420 kts | 169° |
| 2026-05-07 08:21 | 45.44737 | 18.16340 | 39011 ft | 420 kts | 169° |
| 2026-05-07 08:22 | 45.39106 | 18.18560 | 39014 ft | 420 kts | 169° |
| 2026-05-07 08:22 | 45.33459 | 18.20777 | 39013 ft | 421 kts | 169° |
| 2026-05-07 08:23 | 45.27814 | 18.22996 | 39024 ft | 421 kts | 169° |
| 2026-05-07 08:23 | 45.22172 | 18.25210 | 39021 ft | 421 kts | 169° |
| 2026-05-07 08:24 | 45.16523 | 18.27413 | 39025 ft | 421 kts | 169° |
| 2026-05-07 08:24 | 45.10874 | 18.29615 | 39025 ft | 421 kts | 169° |
| 2026-05-07 08:25 | 45.05218 | 18.31818 | 39024 ft | 422 kts | 169° |
| 2026-05-07 08:25 | 44.99556 | 18.34023 | 39025 ft | 422 kts | 168° |
| 2026-05-07 08:26 | 44.91066 | 18.37336 | 39026 ft | 422 kts | 169° |
| 2026-05-07 08:26 | 44.85398 | 18.39529 | 39025 ft | 422 kts | 169° |
| 2026-05-07 08:27 | 44.79727 | 18.41712 | 39025 ft | 423 kts | 169° |
| 2026-05-07 08:27 | 44.74056 | 18.43901 | 39030 ft | 423 kts | 169° |
| 2026-05-07 08:28 | 44.68381 | 18.46092 | 39036 ft | 423 kts | 169° |
| 2026-05-07 08:28 | 44.62702 | 18.48263 | 39043 ft | 423 kts | 169° |
| 2026-05-07 08:29 | 44.57024 | 18.50438 | 39047 ft | 423 kts | 168° |
| 2026-05-07 08:29 | 44.51376 | 18.52606 | 39048 ft | 423 kts | 169° |
| 2026-05-07 08:30 | 44.45691 | 18.54780 | 39051 ft | 423 kts | 169° |
| 2026-05-07 08:30 | 44.39998 | 18.56942 | 39051 ft | 424 kts | 169° |
| 2026-05-07 08:31 | 44.34310 | 18.59105 | 39051 ft | 424 kts | 169° |
| 2026-05-07 08:31 | 44.28621 | 18.61266 | 39054 ft | 424 kts | 168° |
| 2026-05-07 08:32 | 44.22927 | 18.63424 | 39055 ft | 424 kts | 169° |
| 2026-05-07 08:32 | 44.17225 | 18.65573 | 39059 ft | 424 kts | 169° |
| 2026-05-07 08:33 | 44.11524 | 18.67720 | 39066 ft | 424 kts | 169° |
| 2026-05-07 08:33 | 44.05820 | 18.69874 | 39070 ft | 425 kts | 169° |
| 2026-05-07 08:34 | 44.00122 | 18.72023 | 39073 ft | 425 kts | 169° |
| 2026-05-07 08:34 | 43.94412 | 18.74163 | 39074 ft | 425 kts | 169° |
| 2026-05-07 08:35 | 43.88703 | 18.76289 | 39077 ft | 425 kts | 169° |
| 2026-05-07 08:35 | 43.82995 | 18.78416 | 39080 ft | 425 kts | 169° |
| 2026-05-07 08:36 | 43.78248 | 18.80184 | 39083 ft | 425 kts | 169° |
| 2026-05-07 08:36 | 43.71615 | 18.82656 | 39084 ft | 425 kts | 169° |
| 2026-05-07 08:37 | 43.66827 | 18.84434 | 39086 ft | 425 kts | 169° |
| 2026-05-07 08:37 | 43.61105 | 18.86530 | 39089 ft | 425 kts | 169° |
| 2026-05-07 08:38 | 43.55387 | 18.88548 | 39092 ft | 424 kts | 170° |
| 2026-05-07 08:38 | 43.49677 | 18.90604 | 39101 ft | 424 kts | 169° |
| 2026-05-07 08:39 | 43.43999 | 18.92676 | 39100 ft | 424 kts | 169° |
| 2026-05-07 08:39 | 43.38303 | 18.94782 | 39114 ft | 424 kts | 169° |
| 2026-05-07 08:40 | 43.32600 | 18.96893 | 39115 ft | 424 kts | 169° |
| 2026-05-07 08:40 | 43.26895 | 18.98994 | 39127 ft | 424 kts | 169° |
| 2026-05-07 08:41 | 43.21195 | 19.01084 | 39130 ft | 424 kts | 169° |
| 2026-05-07 08:41 | 43.15491 | 19.03158 | 39132 ft | 424 kts | 169° |
| 2026-05-07 08:42 | 43.09803 | 19.05225 | 39138 ft | 424 kts | 169° |
| 2026-05-07 08:42 | 43.04094 | 19.07311 | 39140 ft | 424 kts | 169° |
| 2026-05-07 08:43 | 42.98389 | 19.09399 | 39149 ft | 424 kts | 169° |
| 2026-05-07 08:43 | 42.92688 | 19.11470 | 39150 ft | 424 kts | 169° |
| 2026-05-07 08:44 | 42.86991 | 19.13537 | 39149 ft | 423 kts | 169° |
| 2026-05-07 08:44 | 42.81296 | 19.15600 | 39156 ft | 424 kts | 169° |
| 2026-05-07 08:45 | 42.75597 | 19.17658 | 38930 ft | 424 kts | 169° |
| 2026-05-07 08:45 | 42.72783 | 19.18671 | 38670 ft | 422 kts | 169° |
| 2026-05-07 08:45 | 42.69911 | 19.19709 | 38054 ft | 422 kts | 169° |
| 2026-05-07 08:46 | 42.67087 | 19.20730 | 37412 ft | 419 kts | 169° |
| 2026-05-07 08:46 | 42.64275 | 19.21744 | 36730 ft | 418 kts | 169° |
| 2026-05-07 08:46 | 42.61498 | 19.22742 | 35952 ft | 419 kts | 169° |
| 2026-05-07 08:46 | 42.58649 | 19.23766 | 35336 ft | 416 kts | 169° |
| 2026-05-07 08:47 | 42.55870 | 19.24765 | 34851 ft | 411 kts | 169° |
| 2026-05-07 08:47 | 42.53117 | 19.25753 | 34304 ft | 407 kts | 169° |
| 2026-05-07 08:47 | 42.50420 | 19.26719 | 33750 ft | 403 kts | 169° |
| 2026-05-07 08:47 | 42.47724 | 19.27685 | 33236 ft | 398 kts | 169° |
| 2026-05-07 08:48 | 42.45068 | 19.28637 | 32726 ft | 393 kts | 169° |
| 2026-05-07 08:48 | 42.42424 | 19.29581 | 32220 ft | 389 kts | 169° |
| 2026-05-07 08:48 | 42.39825 | 19.30507 | 31722 ft | 385 kts | 169° |
| 2026-05-07 08:48 | 42.37237 | 19.31426 | 31237 ft | 382 kts | 169° |
| 2026-05-07 08:49 | 42.34684 | 19.32330 | 30751 ft | 378 kts | 169° |
| 2026-05-07 08:49 | 42.32150 | 19.33227 | 30283 ft | 375 kts | 169° |
| 2026-05-07 08:49 | 42.29624 | 19.34123 | 29763 ft | 372 kts | 169° |
| 2026-05-07 08:49 | 42.27139 | 19.35005 | 29310 ft | 367 kts | 169° |
| 2026-05-07 08:50 | 42.24683 | 19.35881 | 28856 ft | 363 kts | 169° |
| 2026-05-07 08:50 | 42.22250 | 19.36746 | 28440 ft | 359 kts | 169° |
| 2026-05-07 08:50 | 42.19845 | 19.37601 | 28007 ft | 355 kts | 170° |
| 2026-05-07 08:50 | 42.17470 | 19.38443 | 27597 ft | 351 kts | 170° |
| 2026-05-07 08:51 | 42.15115 | 19.39279 | 27186 ft | 348 kts | 170° |
| 2026-05-07 08:51 | 42.12794 | 19.40102 | 26784 ft | 344 kts | 170° |
| 2026-05-07 08:51 | 42.10488 | 19.40914 | 26382 ft | 340 kts | 170° |
| 2026-05-07 08:51 | 42.08205 | 19.41715 | 25979 ft | 337 kts | 170° |
| 2026-05-07 08:52 | 42.05945 | 19.42509 | 25560 ft | 335 kts | 170° |
| 2026-05-07 08:52 | 42.03690 | 19.43301 | 25151 ft | 334 kts | 170° |
| 2026-05-07 08:52 | 42.01444 | 19.44090 | 24718 ft | 333 kts | 170° |
| 2026-05-07 08:52 | 41.99204 | 19.44881 | 24287 ft | 332 kts | 170° |
| 2026-05-07 08:53 | 41.96963 | 19.45630 | 23844 ft | 331 kts | 173° |
| 2026-05-07 08:53 | 41.94711 | 19.46238 | 23348 ft | 329 kts | 174° |
| 2026-05-07 08:53 | 41.92461 | 19.46760 | 22894 ft | 327 kts | 175° |
| 2026-05-07 08:53 | 41.90229 | 19.47250 | 22462 ft | 325 kts | 175° |
| 2026-05-07 08:54 | 41.87999 | 19.47741 | 22027 ft | 323 kts | 175° |
| 2026-05-07 08:54 | 41.85786 | 19.48242 | 21606 ft | 323 kts | 174° |
| 2026-05-07 08:54 | 41.83572 | 19.48754 | 21171 ft | 322 kts | 174° |
| 2026-05-07 08:54 | 41.81365 | 19.49271 | 20740 ft | 321 kts | 174° |
| 2026-05-07 08:55 | 41.79172 | 19.49790 | 20323 ft | 321 kts | 174° |
| 2026-05-07 08:55 | 41.76972 | 19.50314 | 19902 ft | 320 kts | 174° |
| 2026-05-07 08:55 | 41.74778 | 19.50836 | 19484 ft | 320 kts | 174° |
| 2026-05-07 08:55 | 41.72584 | 19.51359 | 19065 ft | 320 kts | 174° |
| 2026-05-07 08:56 | 41.70388 | 19.51883 | 18652 ft | 321 kts | 173° |
| 2026-05-07 08:56 | 41.68189 | 19.52405 | 18203 ft | 322 kts | 173° |
| 2026-05-07 08:56 | 41.65983 | 19.52926 | 17770 ft | 321 kts | 174° |
| 2026-05-07 08:56 | 41.63789 | 19.53440 | 17353 ft | 320 kts | 174° |
| 2026-05-07 08:57 | 41.61594 | 19.53857 | 16934 ft | 318 kts | 177° |
| 2026-05-07 08:57 | 41.59398 | 19.54171 | 16523 ft | 316 kts | 178° |
| 2026-05-07 08:57 | 41.57205 | 19.54440 | 16110 ft | 316 kts | 179° |
| 2026-05-07 08:57 | 41.55045 | 19.54699 | 15708 ft | 316 kts | 179° |
| 2026-05-07 08:58 | 41.52853 | 19.54971 | 15298 ft | 316 kts | 178° |
| 2026-05-07 08:58 | 41.50661 | 19.55253 | 14883 ft | 317 kts | 178° |
| 2026-05-07 08:58 | 41.48460 | 19.55543 | 14475 ft | 319 kts | 178° |
| 2026-05-07 08:58 | 41.46245 | 19.55842 | 14063 ft | 321 kts | 178° |
| 2026-05-07 08:59 | 41.44017 | 19.56144 | 13598 ft | 322 kts | 178° |
| 2026-05-07 08:59 | 41.41787 | 19.56446 | 13171 ft | 323 kts | 178° |
| 2026-05-07 08:59 | 41.39549 | 19.56750 | 12732 ft | 323 kts | 179° |
| 2026-05-07 08:59 | 41.37331 | 19.57051 | 12501 ft | 316 kts | 179° |
| 2026-05-07 09:00 | 41.35185 | 19.57345 | 12207 ft | 304 kts | 179° |
| 2026-05-07 09:00 | 41.33101 | 19.57630 | 11603 ft | 300 kts | 180° |
| 2026-05-07 09:00 | 41.31023 | 19.57908 | 11286 ft | 298 kts | 180° |
| 2026-05-07 09:00 | 41.28967 | 19.58182 | 10929 ft | 298 kts | 180° |
| 2026-05-07 09:01 | 41.26904 | 19.58457 | 10489 ft | 295 kts | 180° |
| 2026-05-07 09:01 | 41.24865 | 19.58730 | 9851 ft | 293 kts | 181° |
| 2026-05-07 09:01 | 41.22846 | 19.59003 | 9214 ft | 289 kts | 180° |
| 2026-05-07 09:01 | 41.20887 | 19.59280 | 8760 ft | 276 kts | 178° |
| 2026-05-07 09:02 | 41.19105 | 19.60137 | 8352 ft | 276 kts | 149° |
| 2026-05-07 09:02 | 41.17880 | 19.62057 | 7921 ft | 275 kts | 116° |
| 2026-05-07 09:02 | 41.17568 | 19.64529 | 7437 ft | 272 kts | 85° |
| 2026-05-07 09:02 | 41.17754 | 19.66997 | 6984 ft | 267 kts | 84° |
| 2026-05-07 09:03 | 41.17947 | 19.69435 | 6519 ft | 265 kts | 84° |
| 2026-05-07 09:03 | 41.18163 | 19.71854 | 6026 ft | 261 kts | 79° |
| 2026-05-07 09:03 | 41.18994 | 19.73927 | 5561 ft | 255 kts | 42° |
| 2026-05-07 09:03 | 41.20558 | 19.74900 | 5115 ft | 251 kts | 5° |
| 2026-05-07 09:04 | 41.22282 | 19.74875 | 4661 ft | 247 kts | 354° |
| 2026-05-07 09:04 | 41.23994 | 19.74628 | 4196 ft | 248 kts | 352° |
| 2026-05-07 09:04 | 41.25681 | 19.74329 | 3717 ft | 239 kts | 352° |
| 2026-05-07 09:04 | 41.27274 | 19.74052 | 3309 ft | 224 kts | 353° |
| 2026-05-07 09:05 | 41.28788 | 19.73805 | 2950 ft | 212 kts | 355° |
| 2026-05-07 09:05 | 41.30195 | 19.73588 | 2648 ft | 199 kts | 355° |
| 2026-05-07 09:05 | 41.31549 | 19.73387 | 2293 ft | 192 kts | 355° |
| 2026-05-07 09:05 | 41.32925 | 19.73178 | 2650 ft | 211 kts | 355° |
| 2026-05-07 09:06 | 41.34463 | 19.72952 | 3018 ft | 225 kts | 355° |
| 2026-05-07 09:06 | 41.35998 | 19.72731 | 3021 ft | 222 kts | 355° |
| 2026-05-07 09:06 | 41.37529 | 19.72524 | 3020 ft | 221 kts | 355° |
| 2026-05-07 09:06 | 41.39061 | 19.72317 | 3001 ft | 220 kts | 355° |
| 2026-05-07 09:07 | 41.40583 | 19.72082 | 2990 ft | 220 kts | 351° |
| 2026-05-07 09:07 | 41.42050 | 19.71520 | 2988 ft | 219 kts | 340° |
| 2026-05-07 09:07 | 41.43388 | 19.70686 | 2866 ft | 213 kts | 332° |
| 2026-05-07 09:07 | 41.44679 | 19.69746 | 2741 ft | 200 kts | 332° |
| 2026-05-07 09:08 | 41.45866 | 19.68868 | 2675 ft | 192 kts | 331° |
| 2026-05-07 09:08 | 41.47041 | 19.68026 | 2451 ft | 194 kts | 334° |
| 2026-05-07 09:08 | 41.48216 | 19.67202 | 2312 ft | 188 kts | 333° |
| 2026-05-07 09:08 | 41.49370 | 19.66416 | 2139 ft | 184 kts | 339° |
| 2026-05-07 09:09 | 41.50562 | 19.66012 | 2018 ft | 175 kts | 360° |
| 2026-05-07 09:09 | 41.51729 | 19.66368 | 1868 ft | 168 kts | 39° |
| 2026-05-07 09:09 | 41.52353 | 19.67541 | 1633 ft | 154 kts | 85° |
| 2026-05-07 09:09 | 41.52057 | 19.68865 | 1351 ft | 155 kts | 132° |
| 2026-05-07 09:10 | 41.51208 | 19.69760 | 1304 ft | 159 kts | 147° |
| 2026-05-07 09:10 | 41.50208 | 19.70423 | 1245 ft | 164 kts | 159° |
| 2026-05-07 09:10 | 41.49161 | 19.70832 | 1133 ft | 148 kts | 167° |
| 2026-05-07 09:10 | 41.48185 | 19.71083 | 984 ft | 139 kts | 170° |
| 2026-05-07 09:11 | 41.47256 | 19.71248 | 853 ft | 134 kts | 172° |
| 2026-05-07 09:11 | 41.46323 | 19.71383 | 740 ft | 133 kts | 173° |
| 2026-05-07 09:11 | 41.45423 | 19.71511 | 630 ft | 131 kts | 172° |
| 2026-05-07 09:11 | 41.44510 | 19.71636 | 484 ft | 130 kts | 173° |
| 2026-05-07 09:12 | 41.43610 | 19.71756 | 345 ft | 129 kts | 171° |
| 2026-05-07 09:12 | 41.42736 | 19.71886 | 177 ft | 125 kts | 171° |
| 2026-05-07 09:12 | 41.41931 | 19.71997 | 124 ft | 99 kts | 173° |
| 2026-05-07 09:12 | 41.41486 | 19.72056 | 120 ft | 24 kts | 178° |
| 2026-05-07 09:13 | 41.41391 | 19.72057 | 123 ft | 7 kts | 146° |
| 2026-05-07 09:13 | 41.41401 | 19.72072 | 125 ft | 3 kts | 15° |
| 2026-05-07 09:13 | 41.41462 | 19.72062 | 122 ft | 17 kts | 351° |
| 2026-05-07 09:13 | 41.41602 | 19.72039 | 123 ft | 22 kts | 354° |
| 2026-05-07 09:14 | 41.41755 | 19.72020 | 124 ft | 23 kts | 355° |
| 2026-05-07 09:14 | 41.41879 | 19.71967 | 122 ft | 14 kts | 287° |
| 2026-05-07 09:14 | 41.41871 | 19.71838 | 123 ft | 14 kts | 263° |
| 2026-05-07 09:14 | 41.41864 | 19.71718 | 123 ft | 13 kts | 265° |
| 2026-05-07 09:15 | 41.41868 | 19.71606 | 122 ft | 12 kts | 301° |
| 2026-05-07 09:15 | 41.41955 | 19.71580 | 120 ft | 17 kts | 355° |
| 2026-05-07 09:15 | 41.42067 | 19.71565 | 122 ft | 16 kts | 353° |
| 2026-05-07 09:15 | 41.42178 | 19.71550 | 117 ft | 16 kts | 354° |
| 2026-05-07 09:16 | 41.42281 | 19.71537 | 119 ft | 10 kts | 354° |
| 2026-05-07 09:16 | 41.42303 | 19.71498 | 120 ft | 5 kts | 271° |
| 2026-05-07 09:16 | 41.42302 | 19.71472 | 120 ft | 0 kts | 265° |